Time;durP1;ratioP1;P1;durP2;ratioP2;P2;SDS_P1;SDS_P2;PMS_P1;PMS_P2;Temp;Humidity;BMP_temperature;BMP_pressure;BME280_temperature;BME280_humidity;BME280_pressure;Samples;Min_cycle;Max_cycle;Signal;HPM_P1;HPM_P2
2022/12/09 00:01:54;;;;;;;;;;;;;;;5.85;67.23;99364.78;5092939;28;19920;-62
2022/12/09 00:04:21;;;;;;;;;;;;;;;5.85;66.98;99358.44;5091527;28;19920;-62
2022/12/09 00:06:51;;;;;;;;;;;;;;;5.84;66.53;99356.81;5091489;28;19920;-62
2022/12/09 00:09:17;;;;;;;;;;;;;;;5.82;67.10;99353.53;5090706;28;19920;-62
2022/12/09 00:11:44;;;;;;;;;;;;;;;5.75;67.19;99353.13;5091843;28;19920;-62
2022/12/09 00:14:13;;;;;;;;;;;;;;;5.62;67.47;99338.22;5078258;28;19920;-62
2022/12/09 00:16:40;;;;;;;;;;;;;;;5.56;67.07;99344.97;5072497;28;19935;-62
2022/12/09 00:19:07;;;;;;;;;;;;;;;5.37;67.31;99356.13;5085152;28;19920;-62
2022/12/09 00:21:34;;;;;;;;;;;;;;;5.33;68.05;99355.13;5085686;28;19931;-62
2022/12/09 00:24:02;;;;;;;;;;;;;;;5.31;67.62;99352.66;5105667;28;19920;-62
2022/12/09 00:26:29;;;;;;;;;;;;;;;5.15;68.27;99349.41;5109117;28;21241;-62
2022/12/09 00:28:56;;;;;;;;;;;;;;;5.18;68.02;99350.72;5091612;28;19920;-62
2022/12/09 00:31:26;;;;;;;;;;;;;;;5.16;67.87;99348.25;5091937;28;19931;-62
2022/12/09 00:33:56;;;;;;;;;;;;;;;5.10;67.99;99357.75;5084997;28;19924;-62
2022/12/09 00:36:23;;;;;;;;;;;;;;;4.93;68.31;99355.59;5073343;28;19931;-62
2022/12/09 00:38:50;;;;;;;;;;;;;;;4.99;68.02;99364.59;5082855;28;19927;-62
2022/12/09 00:41:17;;;;;;;;;;;;;;;4.99;68.56;99356.31;5110249;28;20344;-61
2022/12/09 00:43:44;;;;;;;;;;;;;;;4.78;67.94;99356.69;5089833;28;19920;-62
2022/12/09 00:46:12;;;;;;;;;;;;;;;4.83;68.10;99359.38;5091978;28;19920;-62
2022/12/09 00:48:40;;;;;;;;;;;;;;;4.75;68.27;99362.84;5080177;28;19920;-62
2022/12/09 00:51:12;;;;;;;;;;;;;;;4.74;67.81;99354.84;5090949;28;19920;-62
2022/12/09 00:53:39;;;;;;;;;;;;;;;4.70;68.22;99354.63;5099541;28;20314;-62
2022/12/09 00:56:07;;;;;;;;;;;;;;;4.66;68.56;99359.97;5091539;28;19931;-62
2022/12/09 00:58:34;;;;;;;;;;;;;;;4.69;68.34;99361.28;5090306;28;19931;-61
2022/12/09 01:01:01;;;;;;;;;;;;;;;4.75;68.64;99356.50;5090658;28;19920;-61
2022/12/09 01:03:28;;;;;;;;;;;;;;;4.80;68.20;99348.94;5093412;28;19920;-61
2022/12/09 01:05:59;;;;;;;;;;;;;;;4.85;68.31;99354.38;5096050;28;20033;-62
2022/12/09 01:08:26;;;;;;;;;;;;;;;4.86;68.46;99358.75;5094537;28;20353;-62
2022/12/09 01:10:53;;;;;;;;;;;;;;;4.91;68.28;99349.56;5097129;28;19927;-62
2022/12/09 01:13:20;;;;;;;;;;;;;;;4.93;67.85;99352.03;5095944;28;20392;-61
2022/12/09 01:15:47;;;;;;;;;;;;;;;4.95;68.21;99358.88;5087246;28;19927;-61
2022/12/09 01:18:14;;;;;;;;;;;;;;;4.91;68.05;99346.00;5094638;28;20280;-61
2022/12/09 01:20:40;;;;;;;;;;;;;;;4.88;68.29;99345.47;5095050;28;19920;-61
2022/12/09 01:23:09;;;;;;;;;;;;;;;4.89;68.50;99346.28;5094486;28;20382;-61
2022/12/09 01:25:37;;;;;;;;;;;;;;;4.84;68.08;99349.97;5099537;28;19920;-61
2022/12/09 01:28:04;;;;;;;;;;;;;;;4.87;68.53;99352.13;5094905;28;19924;-61
2022/12/09 01:30:31;;;;;;;;;;;;;;;4.94;68.26;99356.44;5094915;28;19927;-61
2022/12/09 01:32:58;;;;;;;;;;;;;;;4.95;68.26;99352.53;5094094;28;19920;-61
2022/12/09 01:35:25;;;;;;;;;;;;;;;4.98;68.22;99362.97;5095649;28;20280;-62
2022/12/09 01:37:52;;;;;;;;;;;;;;;5.03;68.37;99360.13;5093020;28;19920;-61
2022/12/09 01:40:20;;;;;;;;;;;;;;;5.02;68.26;99358.50;5105456;28;20376;-62
2022/12/09 01:42:49;;;;;;;;;;;;;;;4.97;68.11;99353.06;5093958;28;19920;-62
2022/12/09 01:45:36;;;;;;;;;;;;;;;4.97;67.77;99355.81;5093712;28;19935;-62
2022/12/09 01:48:05;;;;;;;;;;;;;;;4.92;68.17;99350.41;5074970;28;19920;-62
2022/12/09 01:50:33;;;;;;;;;;;;;;;5.03;68.12;99355.41;5077625;28;19920;-61
2022/12/09 01:53:00;;;;;;;;;;;;;;;5.02;67.68;99350.22;5093542;28;19927;-61
2022/12/09 01:55:28;;;;;;;;;;;;;;;5.12;68.13;99352.75;5100165;28;19935;-61
2022/12/09 01:57:55;;;;;;;;;;;;;;;5.12;68.16;99352.75;5087036;28;19920;-62
2022/12/09 02:00:22;;;;;;;;;;;;;;;5.14;68.30;99353.25;5075920;28;19920;-61
2022/12/09 02:02:50;;;;;;;;;;;;;;;5.27;68.39;99360.75;5093984;28;19926;-61
2022/12/09 02:05:17;;;;;;;;;;;;;;;5.35;68.43;99350.09;5094247;28;19927;-61
2022/12/09 02:07:44;;;;;;;;;;;;;;;5.35;68.61;99339.06;5094858;28;19946;-61
2022/12/09 02:10:14;;;;;;;;;;;;;;;5.41;68.36;99352.44;5093962;28;19920;-61
2022/12/09 02:12:47;;;;;;;;;;;;;;;5.44;68.53;99346.31;5077770;28;19927;-62
2022/12/09 02:15:18;;;;;;;;;;;;;;;5.40;68.46;99342.53;5093727;28;20026;-61
2022/12/09 02:17:48;;;;;;;;;;;;;;;5.40;68.35;99347.25;5074798;28;20262;-62
2022/12/09 02:20:18;;;;;;;;;;;;;;;5.48;68.50;99338.22;5086817;28;20357;-61
2022/12/09 02:22:47;;;;;;;;;;;;;;;5.43;67.35;99338.34;5098387;28;19930;-62
2022/12/09 02:25:19;;;;;;;;;;;;;;;5.46;68.03;99337.75;5094705;28;19920;-61
2022/12/09 02:27:49;;;;;;;;;;;;;;;5.42;68.11;99334.78;5093819;28;19920;-61
2022/12/09 02:30:19;;;;;;;;;;;;;;;5.39;68.63;99329.03;5093857;28;20380;-61
2022/12/09 02:33:06;;;;;;;;;;;;;;;5.46;68.04;99327.50;5074318;28;20300;-62
2022/12/09 02:35:38;;;;;;;;;;;;;;;5.44;68.69;99324.25;5074750;28;20242;-61
2022/12/09 02:38:08;;;;;;;;;;;;;;;5.43;68.61;99327.28;5112998;28;20310;-62
2022/12/09 02:40:39;;;;;;;;;;;;;;;5.42;68.42;99328.44;5097807;28;19920;-62
2022/12/09 02:43:08;;;;;;;;;;;;;;;5.47;68.80;99325.56;5094268;28;20353;-63
2022/12/09 02:45:36;;;;;;;;;;;;;;;5.53;68.97;99326.28;5093901;28;19946;-60
2022/12/09 02:48:04;;;;;;;;;;;;;;;5.64;68.20;99324.91;5094575;28;20391;-61
2022/12/09 02:50:33;;;;;;;;;;;;;;;5.61;68.28;99320.84;5100686;28;19919;-62
2022/12/09 02:53:04;;;;;;;;;;;;;;;5.74;68.31;99315.59;5114442;28;19926;-61
2022/12/09 02:55:32;;;;;;;;;;;;;;;5.70;68.18;99320.91;5114415;28;20287;-62
2022/12/09 02:58:00;;;;;;;;;;;;;;;5.67;68.39;99314.06;5114349;28;19926;-61
2022/12/09 03:00:28;;;;;;;;;;;;;;;5.68;68.18;99318.44;5109801;28;19927;-61
2022/12/09 03:02:56;;;;;;;;;;;;;;;5.73;68.26;99330.53;5094913;28;19923;-61
2022/12/09 03:05:26;;;;;;;;;;;;;;;5.74;68.43;99323.88;5093572;28;19920;-62
2022/12/09 03:08:03;;;;;;;;;;;;;;;5.85;67.33;99325.28;5100995;28;19920;-61
2022/12/09 03:10:34;;;;;;;;;;;;;;;5.84;66.50;99326.41;5093866;28;19927;-62
2022/12/09 03:13:03;;;;;;;;;;;;;;;5.75;66.57;99309.72;5093842;28;19920;-62
2022/12/09 03:15:34;;;;;;;;;;;;;;;5.79;66.91;99313.50;5093466;28;19920;-61
2022/12/09 03:18:03;;;;;;;;;;;;;;;5.80;66.51;99308.81;5093806;28;19920;-62
2022/12/09 03:20:34;;;;;;;;;;;;;;;5.78;66.21;99316.59;5093475;28;19920;-61
2022/12/09 03:23:05;;;;;;;;;;;;;;;5.70;66.08;99313.44;5108773;28;19926;-62
2022/12/09 03:25:37;;;;;;;;;;;;;;;5.62;65.70;99308.66;5113096;28;19919;-61
2022/12/09 03:28:06;;;;;;;;;;;;;;;5.62;66.38;99302.31;5113983;28;19927;-61
2022/12/09 03:30:35;;;;;;;;;;;;;;;5.57;66.16;99306.00;5113475;28;20268;-63
2022/12/09 03:33:03;;;;;;;;;;;;;;;5.42;67.15;99307.16;5113740;28;19927;-63
2022/12/09 03:35:31;;;;;;;;;;;;;;;5.37;67.57;99298.16;5110509;28;19920;-61
2022/12/09 03:37:59;;;;;;;;;;;;;;;5.39;67.24;99299.47;5113877;28;19920;-61
2022/12/09 03:40:28;;;;;;;;;;;;;;;5.41;67.37;99299.97;5111627;28;20291;-62
2022/12/09 03:42:58;;;;;;;;;;;;;;;5.44;67.23;99301.34;5113851;28;20411;-62
2022/12/09 03:45:26;;;;;;;;;;;;;;;5.44;67.02;99307.66;5113536;28;19926;-62
2022/12/09 03:47:53;;;;;;;;;;;;;;;5.44;67.06;99304.09;5113472;28;19927;-62
2022/12/09 03:50:21;;;;;;;;;;;;;;;5.41;67.21;99293.66;5113312;28;19942;-61
2022/12/09 03:52:50;;;;;;;;;;;;;;;5.47;67.41;99298.75;5110253;28;20332;-62
2022/12/09 03:55:19;;;;;;;;;;;;;;;5.43;67.16;99296.91;5113432;28;19927;-62
2022/12/09 03:57:49;;;;;;;;;;;;;;;5.41;67.69;99291.69;5112975;28;19924;-62
2022/12/09 04:00:17;;;;;;;;;;;;;;;5.41;67.64;99294.47;5113372;28;20331;-61
2022/12/09 04:02:44;;;;;;;;;;;;;;;5.49;67.94;99279.94;5112690;28;19919;-61
2022/12/09 04:05:12;;;;;;;;;;;;;;;5.46;67.32;99280.56;5113561;28;20352;-61
2022/12/09 04:07:39;;;;;;;;;;;;;;;5.47;67.32;99278.59;5107078;28;19920;-62
2022/12/09 04:10:06;;;;;;;;;;;;;;;5.46;67.57;99280.56;5093111;28;19926;-62
2022/12/09 04:12:35;;;;;;;;;;;;;;;5.54;67.58;99275.41;5092679;28;19924;-61
2022/12/09 04:15:02;;;;;;;;;;;;;;;5.51;66.85;99282.38;5092654;28;19920;-61
2022/12/09 04:17:30;;;;;;;;;;;;;;;5.52;66.78;99281.25;5092151;28;19927;-61
2022/12/09 04:19:57;;;;;;;;;;;;;;;5.47;67.05;99282.19;5092078;28;19943;-61
2022/12/09 04:22:24;;;;;;;;;;;;;;;5.47;67.08;99276.66;5110206;28;19927;-61
2022/12/09 04:24:51;;;;;;;;;;;;;;;5.41;66.74;99277.09;5112915;28;20311;-62
2022/12/09 04:27:18;;;;;;;;;;;;;;;5.38;67.69;99267.47;5113013;28;19927;-62
2022/12/09 04:29:45;;;;;;;;;;;;;;;5.43;67.62;99264.59;5113164;28;19919;-62
2022/12/09 04:32:12;;;;;;;;;;;;;;;5.36;68.15;99268.91;5109304;28;19926;-62
2022/12/09 04:34:40;;;;;;;;;;;;;;;5.40;68.02;99261.66;5112802;28;20381;-61
2022/12/09 04:37:07;;;;;;;;;;;;;;;5.47;67.81;99267.56;5114402;28;19924;-61
2022/12/09 04:39:34;;;;;;;;;;;;;;;5.39;67.23;99252.53;5114951;28;19920;-62
2022/12/09 04:42:01;;;;;;;;;;;;;;;5.28;67.94;99257.47;5117263;28;19927;-61
2022/12/09 04:44:28;;;;;;;;;;;;;;;5.20;66.84;99260.94;5115311;28;20296;-61
2022/12/09 04:46:55;;;;;;;;;;;;;;;5.21;67.95;99259.84;5117154;28;19927;-62
2022/12/09 04:49:21;;;;;;;;;;;;;;;5.25;68.02;99258.09;5117114;28;20350;-62
2022/12/09 04:51:50;;;;;;;;;;;;;;;5.21;68.42;99251.56;5116574;28;19923;-62
2022/12/09 04:54:17;;;;;;;;;;;;;;;5.25;68.49;99262.81;5116655;28;20002;-62
2022/12/09 04:56:44;;;;;;;;;;;;;;;5.36;67.18;99268.91;5116876;28;20279;-61
2022/12/09 04:59:11;;;;;;;;;;;;;;;5.33;66.90;99267.56;5115537;28;19919;-61
2022/12/09 05:01:37;;;;;;;;;;;;;;;5.27;66.52;99269.66;5116276;28;19927;-61
2022/12/09 05:04:05;;;;;;;;;;;;;;;5.13;67.34;99259.75;5115433;28;19919;-61
2022/12/09 05:06:32;;;;;;;;;;;;;;;5.11;67.13;99264.75;5116440;28;19927;-61
2022/12/09 05:09:00;;;;;;;;;;;;;;;5.00;67.26;99266.91;5100773;28;20369;-61
2022/12/09 05:11:27;;;;;;;;;;;;;;;4.94;67.62;99268.13;5096506;28;19923;-61
2022/12/09 05:13:54;;;;;;;;;;;;;;;4.96;67.85;99274.16;5101440;28;19927;-61
2022/12/09 05:16:21;;;;;;;;;;;;;;;4.97;67.57;99273.03;5115567;28;19919;-61
2022/12/09 05:18:48;;;;;;;;;;;;;;;4.88;67.56;99276.50;5116139;28;19920;-61
2022/12/09 05:21:16;;;;;;;;;;;;;;;4.88;67.24;99278.44;5098418;28;19920;-61
2022/12/09 05:23:43;;;;;;;;;;;;;;;4.92;67.52;99270.38;5095464;28;19931;-61
2022/12/09 05:26:12;;;;;;;;;;;;;;;4.92;67.61;99275.91;5095989;28;19920;-61
2022/12/09 05:28:39;;;;;;;;;;;;;;;4.91;67.97;99275.06;5095618;28;20391;-61
2022/12/09 05:31:07;;;;;;;;;;;;;;;4.92;68.70;99268.44;5106567;28;19924;-61
2022/12/09 05:33:34;;;;;;;;;;;;;;;4.99;68.29;99274.34;5115659;28;20372;-61
2022/12/09 05:36:01;;;;;;;;;;;;;;;4.97;68.28;99273.03;5112671;28;19943;-61
2022/12/09 05:38:28;;;;;;;;;;;;;;;5.07;68.57;99270.06;5109902;28;19920;-61
2022/12/09 05:40:58;;;;;;;;;;;;;;;5.13;68.48;99268.84;5115880;28;19920;-61
2022/12/09 05:43:27;;;;;;;;;;;;;;;5.09;68.37;99271.38;5115610;28;19920;-61
2022/12/09 05:45:53;;;;;;;;;;;;;;;5.17;68.52;99274.56;5115823;28;19927;-61
2022/12/09 05:48:20;;;;;;;;;;;;;;;5.33;68.38;99270.34;5115208;28;20294;-61
2022/12/09 05:50:56;;;;;;;;;;;;;;;5.41;68.16;99271.56;5113960;28;19924;-61
2022/12/09 05:53:23;;;;;;;;;;;;;;;5.44;67.80;99271.75;5115453;28;20303;-60
2022/12/09 05:55:49;;;;;;;;;;;;;;;5.39;67.69;99273.81;5112332;28;19920;-60
2022/12/09 05:58:16;;;;;;;;;;;;;;;5.49;67.80;99268.88;5082520;28;20289;-60
2022/12/09 06:00:45;;;;;;;;;;;;;;;5.52;66.96;99269.38;5074836;28;19920;-60
2022/12/09 06:03:12;;;;;;;;;;;;;;;5.51;67.14;99265.00;5074758;28;19920;-60
2022/12/09 06:05:39;;;;;;;;;;;;;;;5.56;67.26;99256.59;5074541;28;19920;-61
2022/12/09 06:08:06;;;;;;;;;;;;;;;5.55;67.24;99252.22;5099238;28;19920;-61
2022/12/09 06:10:33;;;;;;;;;;;;;;;5.43;66.07;99252.75;5091657;28;19931;-60
2022/12/09 06:13:00;;;;;;;;;;;;;;;5.46;66.08;99252.94;5109997;28;19920;-61
2022/12/09 06:15:27;;;;;;;;;;;;;;;5.45;63.95;99250.47;5114072;28;19919;-61
2022/12/09 06:17:56;;;;;;;;;;;;;;;5.48;64.82;99255.38;5103382;28;20300;-61
2022/12/09 06:20:23;;;;;;;;;;;;;;;5.51;65.79;99252.00;5094635;28;19920;-61
2022/12/09 06:22:50;;;;;;;;;;;;;;;5.52;66.28;99244.53;5093944;28;19927;-61
2022/12/09 06:25:17;;;;;;;;;;;;;;;5.54;66.98;99247.78;5094031;28;19935;-60
2022/12/09 06:27:44;;;;;;;;;;;;;;;5.60;66.70;99247.38;5093051;28;20399;-61
2022/12/09 06:30:11;;;;;;;;;;;;;;;5.68;66.15;99249.38;5094575;28;19928;-61
2022/12/09 06:32:38;;;;;;;;;;;;;;;5.63;66.38;99245.94;5103929;28;19926;-60
2022/12/09 06:35:07;;;;;;;;;;;;;;;5.59;66.33;99255.97;5098878;28;19927;-61
2022/12/09 06:37:34;;;;;;;;;;;;;;;5.43;66.37;99249.97;5093808;28;19939;-61
2022/12/09 06:40:00;;;;;;;;;;;;;;;5.35;66.75;99250.69;5091864;28;19938;-61
2022/12/09 06:42:27;;;;;;;;;;;;;;;5.39;66.95;99247.00;5093765;28;19920;-61
2022/12/09 06:44:54;;;;;;;;;;;;;;;5.42;67.32;99248.34;5104617;28;20368;-60
2022/12/09 06:47:21;;;;;;;;;;;;;;;5.43;67.90;99247.22;5081058;28;19920;-60
2022/12/09 06:49:48;;;;;;;;;;;;;;;5.51;67.28;99248.44;5093877;28;19945;-61
2022/12/09 06:52:16;;;;;;;;;;;;;;;5.50;66.38;99242.06;5093302;28;19934;-61
2022/12/09 06:54:43;;;;;;;;;;;;;;;5.47;66.20;99251.00;5072735;28;20387;-61
2022/12/09 06:57:10;;;;;;;;;;;;;;;5.36;66.53;99244.06;5072247;28;19927;-61
2022/12/09 06:59:37;;;;;;;;;;;;;;;5.42;66.89;99251.13;5072620;28;19920;-61
2022/12/09 07:02:04;;;;;;;;;;;;;;;5.39;66.92;99257.25;5071876;28;20300;-61
2022/12/09 07:04:31;;;;;;;;;;;;;;;5.41;66.93;99260.50;5071670;28;19920;-60
2022/12/09 07:06:58;;;;;;;;;;;;;;;5.38;67.74;99258.38;5074018;28;19990;-61
2022/12/09 07:09:26;;;;;;;;;;;;;;;5.35;66.96;99262.56;5081053;28;19920;-61
2022/12/09 07:11:53;;;;;;;;;;;;;;;5.38;67.49;99252.88;5087096;28;19927;-60
2022/12/09 07:14:20;;;;;;;;;;;;;;;5.31;67.08;99257.97;5093602;28;20276;-61
2022/12/09 07:16:47;;;;;;;;;;;;;;;5.27;66.81;99260.53;5093128;28;19919;-61
2022/12/09 07:19:18;;;;;;;;;;;;;;;5.26;67.08;99262.47;5093653;28;20281;-61
2022/12/09 07:21:45;;;;;;;;;;;;;;;5.32;67.08;99260.44;5083008;28;19927;-61
2022/12/09 07:24:12;;;;;;;;;;;;;;;5.40;67.92;99269.94;5093185;28;19927;-61
2022/12/09 07:26:40;;;;;;;;;;;;;;;5.48;68.13;99271.94;5093011;28;19927;-61
2022/12/09 07:29:07;;;;;;;;;;;;;;;5.55;68.31;99272.34;5089824;28;19924;-61
2022/12/09 07:31:35;;;;;;;;;;;;;;;5.73;68.50;99269.75;5072161;28;19920;-60
2022/12/09 07:34:02;;;;;;;;;;;;;;;5.74;68.63;99271.38;5091689;28;19919;-61
2022/12/09 07:36:30;;;;;;;;;;;;;;;5.74;67.93;99274.16;5084988;28;19920;-61
2022/12/09 07:38:57;;;;;;;;;;;;;;;5.89;67.84;99279.31;5092240;28;19920;-61
2022/12/09 07:41:24;;;;;;;;;;;;;;;5.89;67.49;99282.06;5085041;28;20364;-61
2022/12/09 07:43:52;;;;;;;;;;;;;;;6.04;67.21;99281.72;5092272;28;19927;-61
2022/12/09 07:46:20;;;;;;;;;;;;;;;6.15;66.34;99287.00;5063507;28;19924;-61
2022/12/09 07:48:47;;;;;;;;;;;;;;;6.12;65.95;99284.88;5090611;28;19920;-60
2022/12/09 07:51:14;;;;;;;;;;;;;;;6.18;65.62;99284.44;5084807;28;20280;-61
2022/12/09 07:53:42;;;;;;;;;;;;;;;6.10;64.98;99286.00;5103998;28;19920;-61
2022/12/09 07:56:11;;;;;;;;;;;;;;;5.99;64.57;99284.63;5099118;28;20356;-61
2022/12/09 07:58:38;;;;;;;;;;;;;;;5.90;65.09;99286.47;5092198;28;20376;-60
2022/12/09 08:01:07;;;;;;;;;;;;;;;5.91;64.97;99288.09;5101457;28;19927;-61
2022/12/09 08:03:34;;;;;;;;;;;;;;;6.04;65.04;99298.31;5113288;28;19931;-61
2022/12/09 08:06:01;;;;;;;;;;;;;;;5.90;64.98;99301.13;5113156;28;19954;-60
2022/12/09 08:08:28;;;;;;;;;;;;;;;5.84;64.73;99304.31;5101512;28;19920;-61
2022/12/09 08:10:55;;;;;;;;;;;;;;;5.85;64.91;99305.94;5092607;28;19927;-61
2022/12/09 08:13:31;;;;;;;;;;;;;;;5.90;64.58;99308.59;5089032;28;19923;-60
2022/12/09 08:16:03;;;;;;;;;;;;;;;5.96;64.49;99307.34;5096125;28;19927;-60
2022/12/09 08:18:32;;;;;;;;;;;;;;;6.00;64.38;99302.03;5085306;28;19928;-60
2022/12/09 08:20:59;;;;;;;;;;;;;;;6.06;63.87;99307.09;5086644;28;19928;-59
2022/12/09 08:23:26;;;;;;;;;;;;;;;5.99;64.44;99308.69;5084982;28;19943;-60
2022/12/09 08:25:53;;;;;;;;;;;;;;;6.01;64.21;99307.25;5084769;28;19927;-60
2022/12/09 08:28:20;;;;;;;;;;;;;;;6.02;63.82;99300.56;5085160;28;19924;-60
2022/12/09 08:30:47;;;;;;;;;;;;;;;5.89;63.62;99305.00;5086091;28;19943;-60
2022/12/09 08:33:14;;;;;;;;;;;;;;;5.96;63.48;99304.59;5085375;28;19920;-60
2022/12/09 08:35:43;;;;;;;;;;;;;;;6.00;63.12;99302.84;5086038;28;19920;-60
2022/12/09 08:38:10;;;;;;;;;;;;;;;6.05;63.59;99304.69;5083330;28;19927;-60
2022/12/09 08:40:37;;;;;;;;;;;;;;;6.12;62.88;99295.94;5083160;28;19931;-60
2022/12/09 08:43:05;;;;;;;;;;;;;;;6.22;63.21;99292.94;5087378;28;19923;-61
2022/12/09 08:45:33;;;;;;;;;;;;;;;6.34;62.62;99287.66;5086948;28;19939;-61
2022/12/09 08:48:00;;;;;;;;;;;;;;;6.41;62.29;99293.53;5086387;28;20372;-61
2022/12/09 08:50:27;;;;;;;;;;;;;;;6.41;61.76;99282.47;5086925;28;20660;-60
2022/12/09 08:52:55;;;;;;;;;;;;;;;6.63;61.65;99286.34;5084950;28;19928;-60
2022/12/09 08:55:22;;;;;;;;;;;;;;;6.62;61.32;99287.50;5086189;28;19931;-61
2022/12/09 08:57:49;;;;;;;;;;;;;;;6.76;61.59;99282.69;5085083;28;19927;-60
2022/12/09 09:00:17;;;;;;;;;;;;;;;7.23;60.53;99284.97;5085126;28;20364;-60
2022/12/09 09:02:44;;;;;;;;;;;;;;;8.08;57.50;99279.88;5088420;28;19924;-62
2022/12/09 09:05:11;;;;;;;;;;;;;;;11.00;52.14;99272.66;5086329;28;19924;-61
2022/12/09 09:07:44;;;;;;;;;;;;;;;12.79;46.25;99266.88;5084221;28;19920;-61
2022/12/09 09:10:12;;;;;;;;;;;;;;;14.36;44.08;99263.31;5086355;28;19924;-61
2022/12/09 09:12:39;;;;;;;;;;;;;;;15.53;40.96;99263.78;5085316;28;19920;-61
2022/12/09 09:15:07;;;;;;;;;;;;;;;16.19;38.41;99272.78;5086201;28;19924;-60
2022/12/09 09:17:34;;;;;;;;;;;;;;;16.85;37.58;99263.91;5085711;28;19924;-61
2022/12/09 09:20:00;;;;;;;;;;;;;;;17.54;36.31;99266.09;5085575;28;19935;-61
2022/12/09 09:22:28;;;;;;;;;;;;;;;18.51;34.85;99269.44;5084787;28;19928;-60
2022/12/09 09:24:55;;;;;;;;;;;;;;;19.16;32.61;99267.59;5088762;28;19920;-60
2022/12/09 09:27:24;;;;;;;;;;;;;;;19.61;32.26;99265.19;5090364;28;19920;-60
2022/12/09 09:29:51;;;;;;;;;;;;;;;20.17;30.45;99273.94;5086895;28;20381;-61
2022/12/09 09:32:18;;;;;;;;;;;;;;;20.66;29.76;99274.97;5089476;28;19935;-61
2022/12/09 09:34:47;;;;;;;;;;;;;;;20.88;29.60;99278.47;5088579;28;19927;-61
2022/12/09 09:37:20;;;;;;;;;;;;;;;20.76;28.78;99278.16;5086513;28;19928;-61
2022/12/09 09:39:48;;;;;;;;;;;;;;;20.19;29.65;99287.69;5089541;28;19927;-61
2022/12/09 09:42:17;;;;;;;;;;;;;;;18.07;31.65;99286.59;5090072;28;20381;-60
2022/12/09 09:44:46;;;;;;;;;;;;;;;16.70;34.48;99291.03;5088693;28;19920;-61
2022/12/09 09:47:16;;;;;;;;;;;;;;;15.76;36.00;99297.44;5089502;28;20300;-60
2022/12/09 09:49:46;;;;;;;;;;;;;;;14.61;37.01;99298.28;5088118;28;19923;-61
2022/12/09 09:52:17;;;;;;;;;;;;;;;13.58;39.69;99294.00;5086165;28;20375;-60
2022/12/09 09:54:44;;;;;;;;;;;;;;;12.78;41.48;99293.97;5080987;28;19931;-60
2022/12/09 09:57:14;;;;;;;;;;;;;;;12.52;41.59;99302.06;5088513;28;19924;-61
2022/12/09 09:59:47;;;;;;;;;;;;;;;12.21;42.89;99291.59;5085816;28;19920;-61
2022/12/09 10:02:22;;;;;;;;;;;;;;;12.06;43.02;99285.59;5084608;28;19927;-60
2022/12/09 10:04:57;;;;;;;;;;;;;;;12.06;43.43;99282.00;5088068;28;19919;-60
2022/12/09 10:07:28;;;;;;;;;;;;;;;12.22;43.43;99282.88;5089629;28;20292;-59
2022/12/09 10:09:59;;;;;;;;;;;;;;;12.19;43.85;99283.56;5087013;28;19920;-61
2022/12/09 10:12:30;;;;;;;;;;;;;;;12.03;42.78;99275.13;5089201;28;20344;-60
2022/12/09 10:15:11;;;;;;;;;;;;;;;11.90;43.78;99277.13;5088122;28;20292;-60
2022/12/09 10:17:44;;;;;;;;;;;;;;;11.76;43.45;99276.69;5086297;28;19919;-61
2022/12/09 10:20:13;;;;;;;;;;;;;;;11.65;44.53;99272.75;5087480;28;19924;-61
2022/12/09 10:22:42;;;;;;;;;;;;;;;11.61;44.29;99274.59;5089878;28;19928;-60
2022/12/09 10:25:15;;;;;;;;;;;;;;;12.31;44.55;99265.97;5093288;28;19943;-60
2022/12/09 10:27:45;;;;;;;;;;;;;;;15.22;39.44;99253.66;5093019;28;19928;-60
2022/12/09 10:30:15;;;;;;;;;;;;;;;16.95;35.93;99246.31;5092714;28;19924;-60
2022/12/09 10:32:44;;;;;;;;;;;;;;;18.58;32.88;99246.09;5092198;28;19923;-59
2022/12/09 10:35:13;;;;;;;;;;;;;;;20.10;30.33;99244.91;5097729;28;19920;-62
2022/12/09 10:37:40;;;;;;;;;;;;;;;20.92;28.81;99226.72;5091347;28;19920;-60
2022/12/09 10:40:18;;;;;;;;;;;;;;;21.46;27.32;99229.91;5094635;28;19938;-60
2022/12/09 10:45:31;;;;;;;;;;;;;;;22.31;27.44;99224.56;5102725;28;19919;-60
2022/12/09 10:47:59;;;;;;;;;;;;;;;22.72;26.74;99228.47;5092765;28;19920;-60
2022/12/09 10:50:31;;;;;;;;;;;;;;;23.00;25.73;99230.88;5110152;28;19990;-60
2022/12/09 10:53:03;;;;;;;;;;;;;;;22.82;25.61;99230.34;5096234;28;19928;-60
2022/12/09 10:55:32;;;;;;;;;;;;;;;22.18;26.32;99224.28;5060163;28;19921;-60
2022/12/09 10:58:16;;;;;;;;;;;;;;;22.78;25.11;99227.53;5071217;28;19921;-61
2022/12/09 11:00:42;;;;;;;;;;;;;;;23.50;24.65;99218.69;5077538;28;19930;-61
2022/12/09 11:03:24;;;;;;;;;;;;;;;23.79;25.11;99226.75;5069812;28;20460;-61
2022/12/09 11:05:55;;;;;;;;;;;;;;;23.94;24.42;99217.91;5066566;28;20293;-61
2022/12/09 11:08:22;;;;;;;;;;;;;;;22.46;25.11;99225.97;5070037;28;19924;-60
2022/12/09 11:10:50;;;;;;;;;;;;;;;21.09;26.94;99228.59;5069729;28;20372;-61
2022/12/09 11:13:19;;;;;;;;;;;;;;;19.95;27.21;99236.47;5080280;28;19944;-60
2022/12/09 11:15:50;;;;;;;;;;;;;;;18.64;29.99;99234.03;5071099;28;20364;-60
2022/12/09 11:18:18;;;;;;;;;;;;;;;18.13;30.52;99234.28;5068998;28;19920;-60
2022/12/09 11:20:55;;;;;;;;;;;;;;;17.07;32.10;99233.16;5070303;28;19920;-60
2022/12/09 11:23:22;;;;;;;;;;;;;;;16.42;34.27;99240.91;5069566;28;20394;-59
2022/12/09 11:25:54;;;;;;;;;;;;;;;16.05;33.88;99241.69;5070847;28;19936;-60
2022/12/09 11:28:25;;;;;;;;;;;;;;;15.40;35.34;99235.13;5069833;28;19931;-60
2022/12/09 11:30:53;;;;;;;;;;;;;;;14.97;36.15;99239.22;5064541;28;19927;-60
2022/12/09 11:33:24;;;;;;;;;;;;;;;14.45;37.79;99243.44;5070235;28;20293;-60
2022/12/09 11:35:52;;;;;;;;;;;;;;;14.55;36.69;99226.03;5083533;28;19920;-60
2022/12/09 11:38:26;;;;;;;;;;;;;;;14.37;36.13;99222.91;5072336;28;19926;-60
2022/12/09 11:41:01;;;;;;;;;;;;;;;14.21;37.39;99215.44;5071645;28;19928;-59
2022/12/09 11:43:31;;;;;;;;;;;;;;;15.20;35.97;99212.00;5067443;28;19943;-59
2022/12/09 11:45:58;;;;;;;;;;;;;;;16.36;33.63;99215.19;5065963;28;19947;-60
2022/12/09 11:48:28;;;;;;;;;;;;;;;18.62;31.50;99208.22;5074046;28;20479;-59
2022/12/09 11:50:56;;;;;;;;;;;;;;;19.98;29.23;99220.72;5076802;28;19924;-60
2022/12/09 11:53:25;;;;;;;;;;;;;;;21.23;27.14;99200.16;5073927;28;19942;-60
2022/12/09 11:55:55;;;;;;;;;;;;;;;21.88;26.50;99194.69;5090426;28;20296;-60
2022/12/09 11:58:24;;;;;;;;;;;;;;;22.60;24.74;99195.81;5086698;28;19928;-59
2022/12/09 12:00:55;;;;;;;;;;;;;;;20.14;27.51;99204.09;5086659;28;19924;-60
2022/12/09 12:03:23;;;;;;;;;;;;;;;21.04;25.96;99203.53;5093365;28;20284;-60
2022/12/09 12:05:51;;;;;;;;;;;;;;;22.04;25.19;99193.25;5087192;28;20288;-60
2022/12/09 12:08:20;;;;;;;;;;;;;;;22.65;24.95;99190.44;5095015;28;19927;-59
2022/12/09 12:10:51;;;;;;;;;;;;;;;23.49;23.88;99185.81;5095325;28;19926;-59
2022/12/09 12:13:22;;;;;;;;;;;;;;;24.01;23.00;99192.19;5100571;28;19920;-59
2022/12/09 12:15:52;;;;;;;;;;;;;;;23.95;22.82;99191.09;5084753;28;19920;-60
2022/12/09 12:18:19;;;;;;;;;;;;;;;24.01;23.17;99189.34;5092250;28;19920;-59
2022/12/09 12:21:01;;;;;;;;;;;;;;;24.06;22.72;99192.44;5089767;28;19919;-59
2022/12/09 12:23:45;;;;;;;;;;;;;;;24.36;22.27;99195.50;5085876;28;19924;-60
2022/12/09 12:26:16;;;;;;;;;;;;;;;24.11;22.62;99194.81;5088144;28;19919;-60
2022/12/09 12:28:49;;;;;;;;;;;;;;;24.13;22.19;99191.53;5088031;28;19943;-59
2022/12/09 12:31:25;;;;;;;;;;;;;;;22.75;23.18;99187.88;5088961;28;19927;-59
2022/12/09 12:33:58;;;;;;;;;;;;;;;20.87;24.90;99188.31;5096566;28;19923;-60
2022/12/09 12:36:31;;;;;;;;;;;;;;;21.88;25.30;99186.16;5089147;28;20387;-59
2022/12/09 12:39:04;;;;;;;;;;;;;;;22.91;23.94;99190.88;5090041;28;19927;-59
2022/12/09 12:41:37;;;;;;;;;;;;;;;23.49;23.43;99180.13;5092869;28;20280;-59
2022/12/09 12:47:04;;;;;;;;;;;;;;;23.87;22.71;99177.00;5094485;28;19928;-59
2022/12/09 12:49:46;;;;;;;;;;;;;;;23.85;22.13;99173.00;5098002;28;19924;-59
2022/12/09 12:52:20;;;;;;;;;;;;;;;23.65;21.86;99173.75;5088558;28;19926;-59
2022/12/09 12:54:53;;;;;;;;;;;;;;;23.06;23.35;99185.78;5092307;28;20364;-59
2022/12/09 12:57:23;;;;;;;;;;;;;;;22.95;22.95;99170.91;5088364;28;19943;-59
2022/12/09 12:59:57;;;;;;;;;;;;;;;22.66;23.24;99171.38;5090211;28;20257;-58
2022/12/09 13:02:40;;;;;;;;;;;;;;;22.75;22.82;99163.13;5099739;28;20127;-58
2022/12/09 13:05:13;;;;;;;;;;;;;;;22.65;22.81;99164.09;5093185;28;19932;-59
2022/12/09 13:07:42;;;;;;;;;;;;;;;22.26;23.94;99159.81;5086292;28;19938;-59